createdAt,value
2018-11-14T00:00:12.895Z,13.70
2018-11-14T00:01:12.890Z,12.70
2018-11-14T00:02:12.882Z,13.00
2018-11-14T00:03:12.875Z,14.40
2018-11-14T00:04:12.869Z,12.90
2018-11-14T00:05:12.862Z,14.80
2018-11-14T00:06:12.855Z,11.80
2018-11-14T00:07:12.852Z,11.90
2018-11-14T00:08:12.842Z,13.10
2018-11-14T00:09:12.837Z,13.90
2018-11-14T00:10:12.851Z,13.90
2018-11-14T00:11:12.824Z,14.50
2018-11-14T00:12:12.817Z,12.70
2018-11-14T00:13:12.811Z,13.60
2018-11-14T00:14:12.806Z,10.70
2018-11-14T00:15:12.797Z,14.90
2018-11-14T00:16:12.791Z,11.00
2018-11-14T00:17:12.785Z,14.30
2018-11-14T00:18:12.787Z,13.10
2018-11-14T00:19:12.769Z,12.80
2018-11-14T00:20:12.793Z,13.70
2018-11-14T00:21:12.760Z,13.70
2018-11-14T00:22:12.759Z,10.70
2018-11-14T00:23:12.749Z,12.90
2018-11-14T00:24:13.442Z,11.50
2018-11-14T00:25:12.735Z,13.00
2018-11-14T00:26:12.727Z,13.30
2018-11-14T00:27:12.727Z,14.30
2018-11-14T00:28:12.723Z,10.40
2018-11-14T00:29:12.713Z,17.40
2018-11-14T00:30:12.702Z,13.80
2018-11-14T00:31:12.697Z,14.70
2018-11-14T00:32:12.696Z,13.20
2018-11-14T00:33:12.693Z,12.70
2018-11-14T00:34:12.679Z,15.10
2018-11-14T00:35:12.670Z,14.20
2018-11-14T00:36:12.665Z,14.10
2018-11-14T00:37:12.655Z,14.10
2018-11-14T00:38:12.656Z,12.10
2018-11-14T00:39:12.651Z,14.80
2018-11-14T00:40:12.644Z,13.70
2018-11-14T00:41:12.633Z,14.90
2018-11-14T00:42:12.636Z,14.40
2018-11-14T00:43:12.622Z,14.80
2018-11-14T00:44:12.618Z,14.50
2018-11-14T00:45:12.606Z,15.10
2018-11-14T00:46:12.604Z,14.20
2018-11-14T00:47:12.600Z,12.50
2018-11-14T00:48:12.592Z,12.30
2018-11-14T00:49:12.586Z,12.80
2018-11-14T00:50:12.579Z,16.90
2018-11-14T00:51:12.573Z,15.80
2018-11-14T00:52:12.566Z,13.00
2018-11-14T00:53:12.560Z,13.20
2018-11-14T00:54:12.556Z,12.80
2018-11-14T00:55:12.547Z,15.60
2018-11-14T00:56:12.541Z,15.50
2018-11-14T00:57:12.532Z,14.30
2018-11-14T00:58:12.527Z,15.10
2018-11-14T00:59:12.523Z,14.00
2018-11-14T01:00:12.517Z,12.90
2018-11-14T01:01:12.511Z,14.40
2018-11-14T01:02:12.502Z,15.30
2018-11-14T01:03:12.498Z,12.90
2018-11-14T01:04:13.453Z,17.50
2018-11-14T01:05:12.494Z,13.20
2018-11-14T01:06:12.478Z,13.20
2018-11-14T01:07:12.473Z,15.60
2018-11-14T01:08:12.475Z,12.70
2018-11-14T01:09:12.503Z,13.30
2018-11-14T01:10:12.453Z,13.10
2018-11-14T01:11:12.448Z,13.80
2018-11-14T01:12:12.443Z,12.80
2018-11-14T01:13:12.519Z,14.80
2018-11-14T01:14:12.432Z,14.20
2018-11-14T01:15:12.425Z,15.20
2018-11-14T01:16:12.423Z,16.50
2018-11-14T01:17:12.428Z,12.70
2018-11-14T01:18:12.401Z,14.70
2018-11-14T01:19:12.399Z,15.50
2018-11-14T01:20:12.393Z,15.90
2018-11-14T01:21:12.385Z,13.90
2018-11-14T01:22:12.379Z,14.90
2018-11-14T01:23:12.374Z,15.80
2018-11-14T01:24:12.365Z,14.80
2018-11-14T01:25:12.361Z,15.10
2018-11-14T01:26:12.356Z,17.20
2018-11-14T01:27:12.808Z,15.10
2018-11-14T01:28:12.344Z,16.40
2018-11-14T01:29:12.335Z,15.30
2018-11-14T01:30:12.329Z,15.60
2018-11-14T01:31:12.324Z,16.50
2018-11-14T01:32:12.317Z,14.90
2018-11-14T01:33:12.310Z,15.40
2018-11-14T01:34:12.426Z,19.30
2018-11-14T01:35:12.299Z,19.10
2018-11-14T01:36:12.294Z,15.80
2018-11-14T01:37:12.286Z,20.20
2018-11-14T01:38:12.282Z,16.20
2018-11-14T01:39:12.276Z,19.80
2018-11-14T01:40:12.267Z,17.80
2018-11-14T01:41:12.261Z,16.30
2018-11-14T01:42:12.254Z,17.10
2018-11-14T01:43:12.244Z,18.90
2018-11-14T01:44:12.244Z,17.40
2018-11-14T01:45:12.234Z,18.80
2018-11-14T01:46:12.228Z,16.80
2018-11-14T01:47:12.221Z,17.70
2018-11-14T01:48:12.215Z,16.90
2018-11-14T01:49:12.209Z,18.10
2018-11-14T01:50:12.215Z,19.10
2018-11-14T01:51:12.196Z,15.80
2018-11-14T01:52:12.190Z,18.60
2018-11-14T01:53:12.183Z,16.50
2018-11-14T01:54:12.184Z,20.50
2018-11-14T01:55:12.168Z,18.40
2018-11-14T01:56:12.163Z,19.90
2018-11-14T01:57:12.157Z,18.40
2018-11-14T01:58:12.154Z,18.10
2018-11-14T01:59:12.144Z,17.00
2018-11-14T02:00:12.138Z,20.60
2018-11-14T02:01:12.132Z,19.40
2018-11-14T02:02:12.128Z,20.70
2018-11-14T02:03:12.123Z,17.80
2018-11-14T02:04:12.966Z,18.20
2018-11-14T02:05:12.104Z,18.30
2018-11-14T02:06:12.103Z,18.80
2018-11-14T02:07:12.093Z,17.50
2018-11-14T02:08:12.086Z,19.70
2018-11-14T02:09:12.075Z,19.00
2018-11-14T02:10:12.071Z,21.20
2018-11-14T02:11:12.066Z,20.30
2018-11-14T02:12:12.063Z,19.60
2018-11-14T02:13:12.056Z,19.00
2018-11-14T02:14:12.053Z,22.40
2018-11-14T02:15:12.043Z,22.50
2018-11-14T02:16:12.034Z,22.60
2018-11-14T02:17:12.023Z,21.00
2018-11-14T02:18:12.085Z,23.90
2018-11-14T02:19:12.012Z,21.10
2018-11-14T02:20:12.006Z,20.70
2018-11-14T02:21:11.998Z,18.00
2018-11-14T02:22:12.002Z,19.70
2018-11-14T02:23:11.987Z,20.40
2018-11-14T02:24:11.979Z,19.10
2018-11-14T02:25:11.972Z,20.90
2018-11-14T02:26:11.969Z,24.10
2018-11-14T02:27:11.955Z,24.00
2018-11-14T02:28:11.952Z,20.50
2018-11-14T02:29:11.952Z,25.40
2018-11-14T02:30:11.943Z,21.70
2018-11-14T02:31:11.931Z,21.70
2018-11-14T02:32:11.928Z,22.10
2018-11-14T02:33:11.919Z,21.40
2018-11-14T02:34:11.910Z,22.40
2018-11-14T02:35:11.903Z,26.30
2018-11-14T02:36:11.902Z,26.50
2018-11-14T02:37:11.889Z,22.10
2018-11-14T02:38:11.884Z,23.30
2018-11-14T02:39:11.880Z,24.00
2018-11-14T02:40:11.868Z,25.20
2018-11-14T02:41:11.862Z,25.40
2018-11-14T02:42:11.858Z,24.60
2018-11-14T02:43:11.849Z,22.40
2018-11-14T02:44:11.844Z,22.80
2018-11-14T02:45:11.838Z,18.90
2018-11-14T02:46:11.830Z,22.10
2018-11-14T02:47:11.825Z,23.10
2018-11-14T02:48:11.817Z,22.30
2018-11-14T02:49:11.809Z,23.40
2018-11-14T02:50:11.804Z,24.30
2018-11-14T02:51:11.796Z,24.60
2018-11-14T02:52:11.788Z,22.50
2018-11-14T02:53:11.782Z,22.50
2018-11-14T02:54:11.775Z,23.10
2018-11-14T02:55:11.767Z,24.30
2018-11-14T02:56:11.761Z,26.20
2018-11-14T02:57:11.757Z,24.80
2018-11-14T02:58:11.749Z,25.90
2018-11-14T02:59:11.741Z,26.00
2018-11-14T03:00:11.733Z,24.80
2018-11-14T03:01:11.728Z,25.30
2018-11-14T03:02:11.722Z,22.90
2018-11-14T03:03:11.724Z,23.60
2018-11-14T03:04:11.705Z,26.20
2018-11-14T03:05:11.704Z,25.40
2018-11-14T03:06:11.696Z,28.60
2018-11-14T03:07:11.688Z,27.10
2018-11-14T03:08:11.677Z,27.50
2018-11-14T03:09:11.678Z,28.30
2018-11-14T03:10:11.665Z,25.10
2018-11-14T03:11:11.657Z,26.70
2018-11-14T03:12:11.713Z,25.50
2018-11-14T03:13:11.652Z,26.80
2018-11-14T03:14:11.633Z,26.50
2018-11-14T03:15:11.628Z,25.40
2018-11-14T03:16:11.622Z,25.30
2018-11-14T03:17:11.615Z,27.90
2018-11-14T03:18:11.608Z,29.10
2018-11-14T03:19:11.604Z,28.00
2018-11-14T03:20:11.594Z,25.80
2018-11-14T03:21:11.587Z,29.30
2018-11-14T03:22:11.581Z,26.30
2018-11-14T03:23:11.574Z,30.30
2018-11-14T03:24:11.568Z,29.10
2018-11-14T03:25:11.563Z,26.80
2018-11-14T03:26:11.563Z,29.30
2018-11-14T03:27:11.546Z,26.40
2018-11-14T03:28:11.542Z,26.60
2018-11-14T03:29:11.532Z,28.70
2018-11-14T03:30:11.525Z,28.10
2018-11-14T03:31:11.519Z,29.20
2018-11-14T03:32:11.513Z,26.60
2018-11-14T03:33:11.503Z,27.90
2018-11-14T03:34:11.498Z,26.60
2018-11-14T03:35:11.492Z,29.30
2018-11-14T03:36:11.485Z,29.10
2018-11-14T03:37:11.480Z,30.80
2018-11-14T03:38:11.472Z,29.40
2018-11-14T03:39:11.463Z,26.40
2018-11-14T03:40:11.460Z,27.90
2018-11-14T03:41:11.450Z,27.60
2018-11-14T03:42:11.442Z,28.10
2018-11-14T03:43:11.433Z,26.80
2018-11-14T03:44:11.432Z,28.00
2018-11-14T03:45:11.421Z,29.40
2018-11-14T03:46:11.430Z,27.90
2018-11-14T03:47:11.403Z,27.20
2018-11-14T03:48:11.398Z,26.60
2018-11-14T03:49:11.392Z,30.80
2018-11-14T03:50:11.386Z,27.70
2018-11-14T03:51:11.378Z,28.10
2018-11-14T03:52:11.371Z,29.50
2018-11-14T03:53:11.363Z,29.70
2018-11-14T03:54:11.357Z,29.50
2018-11-14T03:55:11.353Z,29.00
2018-11-14T03:56:11.343Z,28.90
2018-11-14T03:57:11.336Z,32.50
2018-11-14T03:58:11.389Z,28.20
2018-11-14T03:59:11.321Z,31.70
2018-11-14T04:00:11.316Z,32.10
2018-11-14T04:01:11.314Z,30.20
2018-11-14T04:02:11.300Z,28.60
2018-11-14T04:03:11.295Z,32.50
2018-11-14T04:04:11.286Z,29.80
2018-11-14T04:05:11.287Z,31.00
2018-11-14T04:06:11.277Z,31.40
2018-11-14T04:07:11.269Z,36.90
2018-11-14T04:08:11.260Z,32.00
2018-11-14T04:09:11.316Z,32.10
2018-11-14T04:10:11.242Z,32.80
2018-11-14T04:11:11.240Z,31.30
2018-11-14T04:12:11.227Z,31.70
2018-11-14T04:13:11.223Z,33.30
2018-11-14T04:14:11.219Z,31.90
2018-11-14T04:15:11.213Z,33.50
2018-11-14T04:16:11.201Z,36.50
2018-11-14T04:17:11.194Z,35.30
2018-11-14T04:18:11.186Z,34.00
2018-11-14T04:19:11.182Z,35.40
2018-11-14T04:20:11.173Z,36.00
2018-11-14T04:21:11.172Z,33.60
2018-11-14T04:22:11.161Z,38.10
2018-11-14T04:23:11.164Z,43.50
2018-11-14T04:24:11.148Z,34.00
2018-11-14T04:25:11.137Z,33.50
2018-11-14T04:26:11.136Z,39.90
2018-11-14T04:27:11.124Z,40.30
2018-11-14T04:28:11.117Z,38.20
2018-11-14T04:29:11.109Z,36.70
2018-11-14T04:30:11.104Z,38.90
2018-11-14T04:31:11.090Z,38.20
2018-11-14T04:32:11.087Z,40.70
2018-11-14T04:33:11.083Z,38.60
2018-11-14T04:34:11.077Z,44.30
2018-11-14T04:35:11.072Z,42.80
2018-11-14T04:36:11.070Z,42.50
2018-11-14T04:37:11.051Z,41.50
2018-11-14T04:38:11.047Z,41.30
2018-11-14T04:39:11.039Z,43.10
2018-11-14T04:40:11.034Z,38.80
2018-11-14T04:41:11.022Z,40.70
2018-11-14T04:42:11.023Z,43.40
2018-11-14T04:43:11.008Z,41.40
2018-11-14T04:44:11.006Z,41.60
2018-11-14T04:45:10.997Z,43.80
2018-11-14T04:46:10.993Z,43.60
2018-11-14T04:47:10.982Z,40.60
2018-11-14T04:48:11.096Z,42.20
2018-11-14T04:49:10.966Z,43.00
2018-11-14T04:50:10.959Z,45.10
2018-11-14T04:51:10.951Z,45.10
2018-11-14T04:52:10.945Z,43.30
2018-11-14T04:53:10.940Z,47.20
2018-11-14T04:54:10.929Z,43.80
2018-11-14T04:55:10.927Z,44.70
2018-11-14T04:56:10.921Z,45.10
2018-11-14T04:57:10.912Z,49.10
2018-11-14T04:58:10.903Z,49.20
2018-11-14T04:59:10.899Z,49.40
2018-11-14T05:00:10.891Z,46.60
2018-11-14T05:01:10.887Z,48.50
2018-11-14T05:02:10.871Z,45.30
2018-11-14T05:03:10.868Z,47.10
2018-11-14T05:04:10.857Z,49.20
2018-11-14T05:05:10.852Z,45.90
2018-11-14T05:06:10.844Z,44.80
2018-11-14T05:07:10.840Z,45.50
2018-11-14T05:08:10.831Z,47.30
2018-11-14T05:09:10.826Z,52.30
2018-11-14T05:10:10.818Z,49.00
2018-11-14T05:11:10.811Z,51.00
2018-11-14T05:12:10.802Z,51.20
2018-11-14T05:13:10.828Z,49.10
2018-11-14T05:14:11.507Z,46.70
2018-11-14T05:15:10.778Z,52.40
2018-11-14T05:16:10.774Z,51.20
2018-11-14T05:17:10.767Z,51.60
2018-11-14T05:18:10.760Z,50.40
2018-11-14T05:19:10.749Z,48.40
2018-11-14T05:20:10.752Z,51.20
2018-11-14T05:21:10.732Z,55.80
2018-11-14T05:22:10.730Z,55.20
2018-11-14T05:23:10.723Z,55.10
2018-11-14T05:24:10.715Z,53.70
2018-11-14T05:25:10.705Z,55.40
2018-11-14T05:26:10.701Z,52.80
2018-11-14T05:27:10.692Z,49.90
2018-11-14T05:28:10.684Z,51.50
2018-11-14T05:29:10.679Z,54.40
2018-11-14T05:30:10.671Z,50.70
2018-11-14T05:31:10.662Z,53.00
2018-11-14T05:32:10.656Z,51.80
2018-11-14T05:33:10.651Z,51.20
2018-11-14T05:34:10.640Z,57.60
2018-11-14T05:35:10.640Z,52.10
2018-11-14T05:36:10.626Z,54.60
2018-11-14T05:37:10.618Z,57.00
2018-11-14T05:38:10.609Z,55.40
2018-11-14T05:39:10.606Z,56.90
2018-11-14T05:40:10.664Z,51.50
2018-11-14T05:41:10.592Z,51.60
2018-11-14T05:42:10.580Z,54.00
2018-11-14T05:43:10.575Z,54.80
2018-11-14T05:44:10.568Z,49.60
2018-11-14T05:45:10.611Z,54.00
2018-11-14T05:46:10.554Z,51.50
2018-11-14T05:47:10.550Z,50.70
2018-11-14T05:48:10.537Z,54.80
2018-11-14T05:49:10.530Z,49.70
2018-11-14T05:50:10.527Z,54.70
2018-11-14T05:51:10.515Z,50.70
2018-11-14T05:52:10.511Z,53.50
2018-11-14T05:53:10.501Z,59.30
2018-11-14T05:54:10.501Z,52.80
2018-11-14T05:55:10.485Z,51.00
2018-11-14T05:56:10.486Z,52.40
2018-11-14T05:57:10.470Z,54.60
2018-11-14T05:58:10.463Z,54.30
2018-11-14T05:59:10.456Z,54.30
2018-11-14T06:00:10.450Z,64.20
2018-11-14T06:01:10.440Z,53.80
2018-11-14T06:02:10.431Z,52.30
2018-11-14T06:03:10.433Z,56.90
2018-11-14T06:04:10.420Z,59.00
2018-11-14T06:05:10.413Z,59.30
2018-11-14T06:06:10.406Z,57.10
2018-11-14T06:07:10.428Z,55.90
2018-11-14T06:08:10.391Z,53.20
2018-11-14T06:09:10.378Z,50.30
2018-11-14T06:10:10.373Z,57.70
2018-11-14T06:11:10.366Z,59.50
2018-11-14T06:12:10.359Z,55.60
2018-11-14T06:13:10.352Z,50.80
2018-11-14T06:14:10.345Z,59.40
2018-11-14T06:15:10.349Z,60.30
2018-11-14T06:16:10.334Z,55.50
2018-11-14T06:17:10.322Z,54.80
2018-11-14T06:18:10.317Z,55.90
2018-11-14T06:19:10.307Z,55.60
2018-11-14T06:20:10.303Z,55.00
2018-11-14T06:21:10.292Z,56.50
2018-11-14T06:22:10.290Z,64.50
2018-11-14T06:23:10.278Z,56.50
2018-11-14T06:24:10.278Z,64.40
2018-11-14T06:25:10.263Z,58.30
2018-11-14T06:26:10.257Z,61.40
2018-11-14T06:27:10.248Z,56.80
2018-11-14T06:28:10.253Z,55.50
2018-11-14T06:29:10.237Z,56.80
2018-11-14T06:30:10.230Z,63.40
2018-11-14T06:31:10.218Z,57.30
2018-11-14T06:32:10.213Z,54.50
2018-11-14T06:33:10.207Z,57.60
2018-11-14T06:34:10.198Z,67.20
2018-11-14T06:35:10.195Z,53.10
2018-11-14T06:36:10.180Z,56.30
2018-11-14T06:37:10.176Z,60.20
2018-11-14T06:38:10.171Z,61.40
2018-11-14T06:39:10.166Z,65.60
2018-11-14T06:40:10.151Z,60.70
2018-11-14T06:41:11.100Z,59.60
2018-11-14T06:42:10.136Z,58.00
2018-11-14T06:43:10.132Z,57.70
2018-11-14T06:44:10.124Z,60.30
2018-11-14T06:45:10.114Z,57.10
2018-11-14T06:46:10.107Z,62.60
2018-11-14T06:47:10.101Z,63.70
2018-11-14T06:48:10.095Z,59.70
2018-11-14T06:49:10.087Z,56.20
2018-11-14T06:50:10.164Z,64.00
2018-11-14T06:51:10.067Z,60.70
2018-11-14T06:52:10.071Z,64.70
2018-11-14T06:53:10.055Z,54.90
2018-11-14T06:54:10.054Z,58.60
2018-11-14T06:55:10.043Z,57.20
2018-11-14T06:56:10.034Z,56.40
2018-11-14T06:57:10.026Z,55.90
2018-11-14T06:58:10.025Z,56.60
2018-11-14T06:59:10.147Z,62.20
2018-11-14T07:00:10.005Z,60.50
2018-11-14T07:01:10.001Z,63.20
2018-11-14T07:02:09.989Z,66.00
2018-11-14T07:03:09.992Z,56.70
2018-11-14T07:04:09.973Z,54.30
2018-11-14T07:05:10.041Z,57.80
2018-11-14T07:06:10.049Z,56.00
2018-11-14T07:07:09.956Z,56.20
2018-11-14T07:08:09.947Z,55.40
2018-11-14T07:09:09.944Z,58.30
2018-11-14T07:10:10.611Z,63.00
2018-11-14T07:11:10.022Z,55.50
2018-11-14T07:12:09.916Z,60.10
2018-11-14T07:13:09.917Z,52.20
2018-11-14T07:14:09.907Z,55.20
2018-11-14T07:15:09.895Z,51.80
2018-11-14T07:16:09.889Z,53.80
2018-11-14T07:17:09.882Z,53.30
2018-11-14T07:18:09.875Z,51.70
2018-11-14T07:19:09.868Z,53.20
2018-11-14T07:20:09.865Z,55.40
2018-11-14T07:21:09.855Z,54.60
2018-11-14T07:22:09.846Z,55.00
2018-11-14T07:23:09.841Z,56.60
2018-11-14T07:24:09.833Z,49.40
2018-11-14T07:25:09.825Z,57.00
2018-11-14T07:26:09.820Z,56.70
2018-11-14T07:27:09.814Z,55.20
2018-11-14T07:28:09.807Z,48.10
2018-11-14T07:29:09.793Z,47.10
2018-11-14T07:30:09.792Z,49.80
2018-11-14T07:31:09.782Z,50.80
2018-11-14T07:32:09.890Z,50.10
2018-11-14T07:33:09.765Z,47.50
2018-11-14T07:34:09.766Z,46.80
2018-11-14T07:35:09.759Z,43.00
2018-11-14T07:36:09.754Z,47.30
2018-11-14T07:37:09.745Z,45.70
2018-11-14T07:38:09.732Z,44.80
2018-11-14T07:39:09.726Z,48.20
2018-11-14T07:40:09.719Z,42.20
2018-11-14T07:41:09.710Z,44.10
2018-11-14T07:42:09.705Z,43.60
2018-11-14T07:43:10.538Z,45.00
2018-11-14T07:44:09.691Z,48.50
2018-11-14T07:45:09.960Z,46.30
2018-11-14T07:46:09.680Z,45.10
2018-11-14T07:47:09.670Z,41.30
2018-11-14T07:48:09.804Z,45.40
2018-11-14T07:49:09.718Z,44.80
2018-11-14T07:50:09.700Z,43.30
2018-11-14T07:51:09.643Z,40.60
2018-11-14T07:52:09.637Z,41.50
2018-11-14T07:53:09.631Z,44.60
2018-11-14T07:54:09.623Z,41.30
2018-11-14T07:55:09.615Z,44.50
2018-11-14T07:56:09.607Z,40.70
2018-11-14T07:57:09.603Z,45.50
2018-11-14T07:58:09.644Z,40.30
2018-11-14T07:59:09.594Z,39.80
2018-11-14T08:00:09.583Z,43.60
2018-11-14T08:01:09.652Z,39.60
2018-11-14T08:02:09.643Z,39.90
2018-11-14T08:03:09.579Z,42.40
2018-11-14T08:04:09.552Z,43.60
2018-11-14T08:05:09.549Z,40.00
2018-11-14T08:06:09.543Z,38.00
2018-11-14T08:07:09.536Z,40.10
2018-11-14T08:08:09.595Z,40.60
2018-11-14T08:09:09.565Z,38.40
2018-11-14T08:10:09.611Z,39.60
2018-11-14T08:11:09.507Z,37.90
2018-11-14T08:12:09.525Z,37.20
2018-11-14T08:13:09.493Z,36.30
2018-11-14T08:14:09.484Z,36.80
2018-11-14T08:15:09.477Z,40.10
2018-11-14T08:16:09.474Z,39.90
2018-11-14T08:17:09.465Z,35.90
2018-11-14T08:18:09.464Z,36.40
2018-11-14T08:19:09.457Z,38.00
2018-11-14T08:20:09.445Z,42.40
2018-11-14T08:21:09.440Z,38.50
2018-11-14T08:22:09.425Z,38.60
2018-11-14T08:23:09.429Z,35.10
2018-11-14T08:24:09.416Z,37.00
2018-11-14T08:25:09.498Z,37.20
2018-11-14T08:26:09.403Z,37.90
2018-11-14T08:27:09.404Z,38.40
2018-11-14T08:28:09.387Z,33.10
2018-11-14T08:29:09.385Z,35.50
2018-11-14T08:30:09.378Z,34.80
2018-11-14T08:31:09.371Z,37.30
2018-11-14T08:32:09.364Z,35.10
2018-11-14T08:33:09.362Z,38.90
2018-11-14T08:34:09.350Z,36.40
2018-11-14T08:35:09.349Z,37.50
2018-11-14T08:36:09.331Z,39.40
2018-11-14T08:37:09.331Z,36.00
2018-11-14T08:38:09.322Z,36.60
2018-11-14T08:39:09.321Z,34.70
2018-11-14T08:40:09.312Z,35.30
2018-11-14T08:41:09.308Z,37.60
2018-11-14T08:42:09.476Z,31.50
2018-11-14T08:43:09.291Z,32.40
2018-11-14T08:44:09.283Z,32.70
2018-11-14T08:45:09.279Z,30.20
2018-11-14T08:46:09.273Z,33.40
2018-11-14T08:47:09.263Z,32.10
2018-11-14T08:48:10.128Z,30.80
2018-11-14T08:49:09.318Z,32.20
2018-11-14T08:50:09.253Z,32.60
2018-11-14T08:51:09.243Z,29.10
2018-11-14T08:52:09.233Z,25.20
2018-11-14T08:53:09.226Z,29.00
2018-11-14T08:54:09.218Z,29.80
2018-11-14T08:55:09.218Z,29.80
2018-11-14T08:56:09.258Z,27.40
2018-11-14T08:57:09.202Z,30.90
2018-11-14T08:58:09.245Z,26.60
2018-11-14T08:59:09.190Z,27.20
2018-11-14T09:00:09.182Z,28.70
2018-11-14T09:01:09.174Z,32.60
2018-11-14T09:02:09.167Z,27.10
2018-11-14T09:03:09.165Z,29.30
2018-11-14T09:04:09.233Z,29.40
2018-11-14T09:05:09.154Z,26.40
2018-11-14T09:06:09.176Z,26.10
2018-11-14T09:07:09.167Z,29.30
2018-11-14T09:08:09.134Z,28.40
2018-11-14T09:09:09.132Z,28.00
2018-11-14T09:10:09.119Z,28.40
2018-11-14T09:11:09.187Z,27.30
2018-11-14T09:12:09.114Z,27.60
2018-11-14T09:13:09.193Z,30.80
2018-11-14T09:14:09.096Z,31.50
2018-11-14T09:15:09.158Z,31.80
2018-11-14T09:16:09.086Z,32.20
2018-11-14T09:17:09.076Z,31.60
2018-11-14T09:18:09.083Z,28.70
2018-11-14T09:19:09.063Z,24.80
2018-11-14T09:20:09.067Z,27.80
2018-11-14T09:21:09.054Z,30.10
2018-11-14T09:22:09.048Z,28.70
2018-11-14T09:23:09.042Z,28.30
2018-11-14T09:24:09.039Z,30.80
2018-11-14T09:25:09.027Z,28.90
2018-11-14T09:26:09.027Z,27.30
2018-11-14T09:27:09.021Z,27.50
2018-11-14T09:28:09.015Z,26.10
2018-11-14T09:29:09.004Z,25.40
2018-11-14T09:30:09.000Z,25.60
2018-11-14T09:31:08.994Z,28.30
2018-11-14T09:32:08.991Z,30.60
2018-11-14T09:33:09.092Z,25.80
2018-11-14T09:34:08.979Z,27.20
2018-11-14T09:35:08.973Z,30.30
2018-11-14T09:36:08.971Z,28.10
2018-11-14T09:37:08.960Z,32.20
2018-11-14T09:38:08.960Z,31.50
2018-11-14T09:39:08.950Z,26.30
2018-11-14T09:40:08.940Z,30.10
2018-11-14T09:41:09.001Z,27.90
2018-11-14T09:42:08.931Z,28.70
2018-11-14T09:43:09.048Z,28.50
2018-11-14T09:44:08.919Z,31.40
2018-11-14T09:45:08.925Z,31.40
2018-11-14T09:46:08.910Z,26.50
2018-11-14T09:47:08.903Z,29.30
2018-11-14T09:48:08.901Z,28.20
2018-11-14T09:49:08.938Z,26.20
2018-11-14T09:50:08.885Z,26.60
2018-11-14T09:51:08.879Z,29.00
2018-11-14T09:52:08.880Z,28.40
2018-11-14T09:53:08.890Z,30.70
2018-11-14T09:54:08.867Z,28.50
2018-11-14T09:55:08.858Z,27.30
2018-11-14T09:56:08.854Z,26.70
2018-11-14T09:57:08.918Z,24.40
2018-11-14T09:58:08.841Z,26.10
2018-11-14T09:59:08.838Z,24.80
2018-11-14T10:00:08.836Z,27.10
2018-11-14T10:01:08.821Z,25.70
2018-11-14T10:02:08.817Z,23.90
2018-11-14T10:03:08.814Z,23.70
2018-11-14T10:04:08.812Z,27.10
2018-11-14T10:05:08.801Z,25.00
2018-11-14T10:06:08.894Z,26.20
2018-11-14T10:07:08.795Z,23.00
2018-11-14T10:08:08.911Z,27.30
2018-11-14T10:09:08.781Z,26.20
2018-11-14T10:10:08.773Z,25.40
2018-11-14T10:11:08.770Z,26.10
2018-11-14T10:12:08.765Z,26.30
2018-11-14T10:13:08.759Z,24.80
2018-11-14T10:14:08.805Z,27.80
2018-11-14T10:15:08.745Z,26.40
2018-11-14T10:16:08.740Z,26.40
2018-11-14T10:17:08.735Z,27.60
2018-11-14T10:18:08.733Z,25.30
2018-11-14T10:19:08.727Z,20.80
2018-11-14T10:20:08.724Z,21.00
2018-11-14T10:21:08.750Z,23.50
2018-11-14T10:22:08.710Z,21.00
2018-11-14T10:23:08.706Z,26.40
2018-11-14T10:24:08.696Z,20.50
2018-11-14T10:25:08.697Z,25.80
2018-11-14T10:26:08.904Z,27.60
2018-11-14T10:27:08.683Z,21.30
2018-11-14T10:28:08.680Z,21.50
2018-11-14T10:29:08.677Z,24.70
2018-11-14T10:30:08.668Z,22.10
2018-11-14T10:31:08.665Z,22.70
2018-11-14T10:32:08.657Z,24.90
2018-11-14T10:33:08.649Z,31.50
2018-11-14T10:34:08.647Z,25.40
2018-11-14T10:35:08.640Z,21.80
2018-11-14T10:36:08.638Z,24.90
2018-11-14T10:37:08.639Z,21.40
2018-11-14T10:38:08.630Z,21.30
2018-11-14T10:39:08.665Z,22.40
2018-11-14T10:40:08.718Z,22.40
2018-11-14T10:41:08.688Z,21.60
2018-11-14T10:42:08.607Z,21.80
2018-11-14T10:43:08.699Z,21.70
2018-11-14T10:44:08.720Z,21.50
2018-11-14T10:45:08.593Z,21.10
2018-11-14T10:46:08.619Z,22.30
2018-11-14T10:47:08.762Z,22.80
2018-11-14T10:48:08.676Z,21.90
2018-11-14T10:50:08.920Z,22.40
2018-11-14T10:51:08.997Z,21.00
2018-11-14T10:52:09.202Z,22.30
2018-11-14T10:53:08.885Z,19.20
2018-11-14T10:54:08.999Z,21.20
2018-11-14T10:55:08.957Z,22.50
2018-11-14T10:56:08.799Z,22.50
2018-11-14T10:57:08.838Z,19.20
2018-11-14T10:58:08.783Z,22.90
2018-11-14T10:59:08.895Z,22.60
2018-11-14T11:00:08.873Z,23.50
2018-11-14T11:01:08.959Z,17.70
2018-11-14T11:02:08.810Z,20.90
2018-11-14T11:03:08.849Z,23.60
2018-11-14T11:04:09.089Z,22.30
2018-11-14T11:05:08.873Z,24.70
2018-11-14T11:06:08.883Z,22.60
2018-11-14T11:07:08.960Z,23.00
2018-11-14T11:08:08.557Z,22.80
2018-11-14T11:09:08.475Z,21.50
2018-11-14T11:10:08.470Z,24.40
2018-11-14T11:11:08.469Z,24.20
2018-11-14T11:12:08.471Z,22.20
2018-11-14T11:13:08.458Z,24.00
2018-11-14T11:14:08.451Z,22.80
2018-11-14T11:15:08.448Z,23.60
2018-11-14T11:16:08.439Z,22.40
2018-11-14T11:17:08.433Z,24.50
2018-11-14T11:18:08.429Z,25.40
2018-11-14T11:19:08.425Z,29.20
2018-11-14T11:20:08.420Z,25.50
2018-11-14T11:21:08.418Z,24.30
2018-11-14T11:22:08.547Z,28.40
2018-11-14T11:23:08.559Z,28.40
2018-11-14T11:24:08.402Z,24.10
2018-11-14T11:25:08.394Z,25.50
2018-11-14T11:26:08.388Z,28.50
2018-11-14T11:27:08.385Z,27.50
2018-11-14T11:28:08.395Z,27.50
2018-11-14T11:29:08.374Z,27.00
2018-11-14T11:30:08.459Z,26.30
2018-11-14T11:31:08.366Z,25.70
2018-11-14T11:32:08.419Z,27.50
2018-11-14T11:33:08.352Z,27.40
2018-11-14T11:34:08.348Z,28.50
2018-11-14T11:35:08.346Z,27.10
2018-11-14T11:36:08.499Z,26.90
2018-11-14T11:37:08.332Z,28.80
2018-11-14T11:38:08.369Z,27.30
2018-11-14T11:39:08.333Z,26.70
2018-11-14T11:40:08.318Z,29.90
2018-11-14T11:41:08.314Z,28.20
2018-11-14T11:42:08.309Z,27.10
2018-11-14T11:43:08.304Z,30.30
2018-11-14T11:44:08.325Z,28.20
2018-11-14T11:45:08.295Z,31.40
2018-11-14T11:46:08.290Z,33.70
2018-11-14T11:47:08.286Z,29.50
2018-11-14T11:48:08.279Z,31.40
2018-11-14T11:49:08.275Z,32.00
2018-11-14T11:50:08.269Z,30.70
2018-11-14T11:51:08.340Z,34.30
2018-11-14T11:52:08.257Z,30.60
2018-11-14T11:53:08.258Z,33.40
2018-11-14T11:54:08.246Z,31.90
2018-11-14T11:55:08.244Z,31.30
2018-11-14T11:56:08.239Z,29.80
2018-11-14T11:57:08.232Z,30.90
2018-11-14T11:58:08.230Z,31.60
2018-11-14T11:59:08.221Z,31.90
2018-11-14T12:00:08.292Z,35.30
2018-11-14T12:01:08.214Z,30.30
2018-11-14T12:02:08.249Z,31.00
2018-11-14T12:03:08.210Z,32.60
2018-11-14T12:04:08.198Z,34.20
2018-11-14T12:05:08.194Z,29.70
2018-11-14T12:06:08.339Z,33.50
2018-11-14T12:07:08.190Z,32.70
2018-11-14T12:08:08.175Z,31.00
2018-11-14T12:09:08.172Z,25.50
2018-11-14T12:10:08.376Z,26.60
2018-11-14T12:11:08.169Z,29.10
2018-11-14T12:12:08.158Z,30.20
2018-11-14T12:13:08.198Z,28.60
2018-11-14T12:14:08.147Z,30.50
2018-11-14T12:15:08.141Z,25.90
2018-11-14T12:16:08.144Z,27.40
2018-11-14T12:17:08.152Z,26.20
2018-11-14T12:18:08.363Z,26.70
2018-11-14T12:19:08.227Z,23.50
2018-11-14T12:20:08.117Z,23.50
2018-11-14T12:21:08.110Z,23.50
2018-11-14T12:22:08.109Z,24.00
2018-11-14T12:23:08.100Z,24.00
2018-11-14T12:24:08.094Z,26.40
2018-11-14T12:25:08.419Z,24.50
2018-11-14T12:26:08.087Z,25.90
2018-11-14T12:27:08.139Z,24.10
2018-11-14T12:28:08.077Z,28.60
2018-11-14T12:29:08.071Z,27.50
2018-11-14T12:30:08.140Z,28.90
2018-11-14T12:31:08.292Z,25.30
2018-11-14T12:32:08.054Z,25.10
2018-11-14T12:33:08.045Z,27.90
2018-11-14T12:34:08.079Z,25.40
2018-11-14T12:35:08.040Z,32.80
2018-11-14T12:36:08.033Z,31.80
2018-11-14T12:37:08.026Z,30.00
2018-11-14T12:38:08.047Z,28.90
2018-11-14T12:39:08.012Z,27.10
2018-11-14T12:40:08.010Z,29.50
2018-11-14T12:41:08.004Z,32.40
2018-11-14T12:42:07.999Z,30.50
2018-11-14T12:43:08.103Z,30.90
2018-11-14T12:44:07.988Z,28.90
2018-11-14T12:45:08.089Z,30.90
2018-11-14T12:46:07.978Z,28.10
2018-11-14T12:47:08.134Z,31.40
2018-11-14T12:48:07.967Z,28.00
2018-11-14T12:49:07.959Z,30.60
2018-11-14T12:50:07.955Z,29.70
2018-11-14T12:51:07.951Z,29.60
2018-11-14T12:52:07.946Z,27.80
2018-11-14T12:53:08.194Z,30.60